sensor_id;sensor_type;location;lat;lon;timestamp;temperature;humidity
7461;DHT22;6757;52.258;12.840;2023-07-28T00:00:42;16.60;99.90
7461;DHT22;6757;52.258;12.840;2023-07-28T00:03:09;16.60;99.90
7461;DHT22;6757;52.258;12.840;2023-07-28T00:05:36;16.60;99.90
7461;DHT22;6757;52.258;12.840;2023-07-28T00:08:03;16.60;99.90
7461;DHT22;6757;52.258;12.840;2023-07-28T00:10:30;16.60;99.90
7461;DHT22;6757;52.258;12.840;2023-07-28T00:12:58;16.60;99.90
7461;DHT22;6757;52.258;12.840;2023-07-28T00:15:29;16.60;99.90
7461;DHT22;6757;52.258;12.840;2023-07-28T00:17:56;16.60;99.90
7461;DHT22;6757;52.258;12.840;2023-07-28T00:20:25;16.60;99.90
7461;DHT22;6757;52.258;12.840;2023-07-28T00:22:53;16.60;99.90
7461;DHT22;6757;52.258;12.840;2023-07-28T00:25:20;16.60;99.90
7461;DHT22;6757;52.258;12.840;2023-07-28T00:27:47;16.70;99.90
7461;DHT22;6757;52.258;12.840;2023-07-28T00:30:14;16.60;99.90
7461;DHT22;6757;52.258;12.840;2023-07-28T00:32:43;16.70;99.90
7461;DHT22;6757;52.258;12.840;2023-07-28T00:35:10;16.70;99.90
7461;DHT22;6757;52.258;12.840;2023-07-28T00:37:36;16.70;99.90
7461;DHT22;6757;52.258;12.840;2023-07-28T00:40:04;16.70;99.90
7461;DHT22;6757;52.258;12.840;2023-07-28T00:42:32;16.70;99.90
7461;DHT22;6757;52.258;12.840;2023-07-28T00:44:59;16.70;99.90
7461;DHT22;6757;52.258;12.840;2023-07-28T00:47:26;16.70;99.90
7461;DHT22;6757;52.258;12.840;2023-07-28T00:49:54;16.70;99.90
7461;DHT22;6757;52.258;12.840;2023-07-28T00:52:21;16.70;99.90
7461;DHT22;6757;52.258;12.840;2023-07-28T00:54:48;16.70;99.90
7461;DHT22;6757;52.258;12.840;2023-07-28T00:57:15;16.70;99.90
7461;DHT22;6757;52.258;12.840;2023-07-28T00:59:44;16.70;99.90
7461;DHT22;6757;52.258;12.840;2023-07-28T01:02:11;16.80;99.90
7461;DHT22;6757;52.258;12.840;2023-07-28T01:04:39;16.80;99.90
7461;DHT22;6757;52.258;12.840;2023-07-28T01:07:10;16.80;99.90
7461;DHT22;6757;52.258;12.840;2023-07-28T01:09:46;16.80;99.90
7461;DHT22;6757;52.258;12.840;2023-07-28T01:12:17;16.80;99.90
7461;DHT22;6757;52.258;12.840;2023-07-28T01:14:44;16.80;99.90
7461;DHT22;6757;52.258;12.840;2023-07-28T01:17:11;16.80;99.90
7461;DHT22;6757;52.258;12.840;2023-07-28T01:19:38;16.90;99.90
7461;DHT22;6757;52.258;12.840;2023-07-28T01:22:21;16.80;99.90
7461;DHT22;6757;52.258;12.840;2023-07-28T01:25:06;16.90;99.90
7461;DHT22;6757;52.258;12.840;2023-07-28T01:27:36;16.90;99.90
7461;DHT22;6757;52.258;12.840;2023-07-28T01:30:08;16.90;99.90
7461;DHT22;6757;52.258;12.840;2023-07-28T01:32:36;16.90;99.90
7461;DHT22;6757;52.258;12.840;2023-07-28T01:35:03;16.90;99.90
7461;DHT22;6757;52.258;12.840;2023-07-28T01:37:31;16.90;99.90
7461;DHT22;6757;52.258;12.840;2023-07-28T01:39:58;16.90;99.90
7461;DHT22;6757;52.258;12.840;2023-07-28T01:42:24;16.90;99.90
7461;DHT22;6757;52.258;12.840;2023-07-28T01:44:53;16.90;99.90
7461;DHT22;6757;52.258;12.840;2023-07-28T01:47:20;16.90;99.90
7461;DHT22;6757;52.258;12.840;2023-07-28T01:49:46;16.90;99.90
7461;DHT22;6757;52.258;12.840;2023-07-28T01:52:13;16.90;99.90
7461;DHT22;6757;52.258;12.840;2023-07-28T01:54:40;16.80;99.90
7461;DHT22;6757;52.258;12.840;2023-07-28T01:57:07;16.90;99.90
7461;DHT22;6757;52.258;12.840;2023-07-28T01:59:34;16.90;99.90
7461;DHT22;6757;52.258;12.840;2023-07-28T02:02:03;16.80;99.90
7461;DHT22;6757;52.258;12.840;2023-07-28T02:04:30;16.80;99.90
7461;DHT22;6757;52.258;12.840;2023-07-28T02:06:57;16.80;99.90
7461;DHT22;6757;52.258;12.840;2023-07-28T02:09:24;16.80;99.90
7461;DHT22;6757;52.258;12.840;2023-07-28T02:11:50;16.80;99.90
7461;DHT22;6757;52.258;12.840;2023-07-28T02:14:18;16.80;99.90
7461;DHT22;6757;52.258;12.840;2023-07-28T02:16:45;16.80;99.90
7461;DHT22;6757;52.258;12.840;2023-07-28T02:19:13;16.90;99.90
7461;DHT22;6757;52.258;12.840;2023-07-28T02:21:40;16.80;99.90
7461;DHT22;6757;52.258;12.840;2023-07-28T02:24:07;16.90;99.90
7461;DHT22;6757;52.258;12.840;2023-07-28T02:26:34;16.90;99.90
7461;DHT22;6757;52.258;12.840;2023-07-28T02:29:01;16.80;99.90
7461;DHT22;6757;52.258;12.840;2023-07-28T02:31:27;16.80;99.90
7461;DHT22;6757;52.258;12.840;2023-07-28T02:33:55;16.80;99.90
7461;DHT22;6757;52.258;12.840;2023-07-28T02:36:23;16.80;99.90
7461;DHT22;6757;52.258;12.840;2023-07-28T02:38:50;16.90;99.90
7461;DHT22;6757;52.258;12.840;2023-07-28T02:41:17;16.80;99.90
7461;DHT22;6757;52.258;12.840;2023-07-28T02:43:44;16.80;99.90
7461;DHT22;6757;52.258;12.840;2023-07-28T02:46:11;16.80;99.90
7461;DHT22;6757;52.258;12.840;2023-07-28T02:48:38;16.80;99.90
7461;DHT22;6757;52.258;12.840;2023-07-28T02:51:05;16.80;99.90
7461;DHT22;6757;52.258;12.840;2023-07-28T02:53:33;16.80;99.90
7461;DHT22;6757;52.258;12.840;2023-07-28T02:56:00;16.80;99.90
7461;DHT22;6757;52.258;12.840;2023-07-28T02:58:27;16.80;99.90
7461;DHT22;6757;52.258;12.840;2023-07-28T03:00:54;16.80;99.90
7461;DHT22;6757;52.258;12.840;2023-07-28T03:03:21;16.80;99.90
7461;DHT22;6757;52.258;12.840;2023-07-28T03:05:51;16.80;99.90
7461;DHT22;6757;52.258;12.840;2023-07-28T03:08:19;16.80;99.90
7461;DHT22;6757;52.258;12.840;2023-07-28T03:10:48;16.80;99.90
7461;DHT22;6757;52.258;12.840;2023-07-28T03:13:14;16.80;99.90
7461;DHT22;6757;52.258;12.840;2023-07-28T03:15:41;16.80;99.90
7461;DHT22;6757;52.258;12.840;2023-07-28T03:18:08;16.80;99.90
7461;DHT22;6757;52.258;12.840;2023-07-28T03:20:35;16.80;99.90
7461;DHT22;6757;52.258;12.840;2023-07-28T03:23:02;16.90;99.90
7461;DHT22;6757;52.258;12.840;2023-07-28T03:25:29;16.80;99.90
7461;DHT22;6757;52.258;12.840;2023-07-28T03:27:57;16.80;99.90
7461;DHT22;6757;52.258;12.840;2023-07-28T03:30:24;16.90;99.90
7461;DHT22;6757;52.258;12.840;2023-07-28T03:32:51;16.90;99.90
7461;DHT22;6757;52.258;12.840;2023-07-28T03:35:18;16.90;99.90
7461;DHT22;6757;52.258;12.840;2023-07-28T03:37:45;16.90;99.90
7461;DHT22;6757;52.258;12.840;2023-07-28T03:40:12;16.90;99.90
7461;DHT22;6757;52.258;12.840;2023-07-28T03:42:39;16.90;99.90
7461;DHT22;6757;52.258;12.840;2023-07-28T03:45:08;16.90;99.90
7461;DHT22;6757;52.258;12.840;2023-07-28T03:47:36;16.90;99.90
7461;DHT22;6757;52.258;12.840;2023-07-28T03:50:05;16.90;99.90
7461;DHT22;6757;52.258;12.840;2023-07-28T03:52:32;16.90;99.90
7461;DHT22;6757;52.258;12.840;2023-07-28T03:54:59;16.90;99.90
7461;DHT22;6757;52.258;12.840;2023-07-28T03:57:26;16.90;99.90
7461;DHT22;6757;52.258;12.840;2023-07-28T03:59:53;16.90;99.90
7461;DHT22;6757;52.258;12.840;2023-07-28T04:02:21;16.90;99.90
7461;DHT22;6757;52.258;12.840;2023-07-28T04:04:53;16.90;99.90
7461;DHT22;6757;52.258;12.840;2023-07-28T04:07:21;16.90;99.90
7461;DHT22;6757;52.258;12.840;2023-07-28T04:09:48;16.90;99.90
7461;DHT22;6757;52.258;12.840;2023-07-28T04:12:15;17.00;99.90
7461;DHT22;6757;52.258;12.840;2023-07-28T04:14:42;17.00;99.90
7461;DHT22;6757;52.258;12.840;2023-07-28T04:17:09;17.00;99.90
7461;DHT22;6757;52.258;12.840;2023-07-28T04:19:38;17.00;99.90
7461;DHT22;6757;52.258;12.840;2023-07-28T04:22:05;17.00;99.90
7461;DHT22;6757;52.258;12.840;2023-07-28T04:24:32;17.00;99.90
7461;DHT22;6757;52.258;12.840;2023-07-28T04:27:00;17.00;99.90
7461;DHT22;6757;52.258;12.840;2023-07-28T04:29:26;17.00;99.90
7461;DHT22;6757;52.258;12.840;2023-07-28T04:31:53;17.10;99.90
7461;DHT22;6757;52.258;12.840;2023-07-28T04:34:20;17.00;99.90
7461;DHT22;6757;52.258;12.840;2023-07-28T04:36:49;17.10;99.90
7461;DHT22;6757;52.258;12.840;2023-07-28T04:39:16;17.10;99.90
7461;DHT22;6757;52.258;12.840;2023-07-28T04:41:43;17.10;99.90
7461;DHT22;6757;52.258;12.840;2023-07-28T04:44:09;17.00;99.90
7461;DHT22;6757;52.258;12.840;2023-07-28T04:46:36;17.10;99.90
7461;DHT22;6757;52.258;12.840;2023-07-28T04:49:03;17.10;99.90
7461;DHT22;6757;52.258;12.840;2023-07-28T04:51:30;17.20;99.90
7461;DHT22;6757;52.258;12.840;2023-07-28T04:53:58;17.20;99.90
7461;DHT22;6757;52.258;12.840;2023-07-28T04:56:25;17.20;99.90
7461;DHT22;6757;52.258;12.840;2023-07-28T04:58:52;17.20;99.90
7461;DHT22;6757;52.258;12.840;2023-07-28T05:01:19;17.20;99.90
7461;DHT22;6757;52.258;12.840;2023-07-28T05:03:46;17.30;99.90
7461;DHT22;6757;52.258;12.840;2023-07-28T05:06:13;17.20;99.90
7461;DHT22;6757;52.258;12.840;2023-07-28T05:08:40;17.30;99.90
7461;DHT22;6757;52.258;12.840;2023-07-28T05:11:08;17.30;99.90
7461;DHT22;6757;52.258;12.840;2023-07-28T05:13:35;17.30;99.90
7461;DHT22;6757;52.258;12.840;2023-07-28T05:16:02;17.30;99.90
7461;DHT22;6757;52.258;12.840;2023-07-28T05:18:29;17.30;99.90
7461;DHT22;6757;52.258;12.840;2023-07-28T05:20:56;17.30;99.90
7461;DHT22;6757;52.258;12.840;2023-07-28T05:23:23;17.30;99.90
7461;DHT22;6757;52.258;12.840;2023-07-28T05:25:50;17.30;99.90
7461;DHT22;6757;52.258;12.840;2023-07-28T05:28:18;17.30;99.90
7461;DHT22;6757;52.258;12.840;2023-07-28T05:30:45;17.40;99.90
7461;DHT22;6757;52.258;12.840;2023-07-28T05:33:12;17.30;99.90
7461;DHT22;6757;52.258;12.840;2023-07-28T05:35:39;17.40;99.90
7461;DHT22;6757;52.258;12.840;2023-07-28T05:38:06;17.40;99.90
7461;DHT22;6757;52.258;12.840;2023-07-28T05:40:33;17.40;99.90
7461;DHT22;6757;52.258;12.840;2023-07-28T05:43:00;17.40;99.90
7461;DHT22;6757;52.258;12.840;2023-07-28T05:45:29;17.40;99.90
7461;DHT22;6757;52.258;12.840;2023-07-28T05:47:56;17.50;99.90
7461;DHT22;6757;52.258;12.840;2023-07-28T05:50:23;17.40;99.90
7461;DHT22;6757;52.258;12.840;2023-07-28T05:52:50;17.50;99.90
7461;DHT22;6757;52.258;12.840;2023-07-28T05:55:17;17.50;99.90
7461;DHT22;6757;52.258;12.840;2023-07-28T05:57:44;17.50;99.90
7461;DHT22;6757;52.258;12.840;2023-07-28T06:00:12;17.50;99.90
7461;DHT22;6757;52.258;12.840;2023-07-28T06:02:41;17.50;99.90
7461;DHT22;6757;52.258;12.840;2023-07-28T06:05:08;17.50;99.90
7461;DHT22;6757;52.258;12.840;2023-07-28T06:07:35;17.50;99.90
7461;DHT22;6757;52.258;12.840;2023-07-28T06:10:02;17.50;99.90
7461;DHT22;6757;52.258;12.840;2023-07-28T06:12:30;17.60;99.90
7461;DHT22;6757;52.258;12.840;2023-07-28T06:14:57;17.60;99.90
7461;DHT22;6757;52.258;12.840;2023-07-28T06:17:24;17.70;99.90
7461;DHT22;6757;52.258;12.840;2023-07-28T06:19:54;17.70;99.90
7461;DHT22;6757;52.258;12.840;2023-07-28T06:22:21;17.80;99.90
7461;DHT22;6757;52.258;12.840;2023-07-28T06:24:48;17.80;99.90
7461;DHT22;6757;52.258;12.840;2023-07-28T06:27:15;17.90;99.90
7461;DHT22;6757;52.258;12.840;2023-07-28T06:29:42;18.00;99.90
7461;DHT22;6757;52.258;12.840;2023-07-28T06:32:09;18.00;99.90
7461;DHT22;6757;52.258;12.840;2023-07-28T06:34:36;18.10;99.90
7461;DHT22;6757;52.258;12.840;2023-07-28T06:37:05;18.20;99.90
7461;DHT22;6757;52.258;12.840;2023-07-28T06:39:32;18.20;99.90
7461;DHT22;6757;52.258;12.840;2023-07-28T06:41:59;18.30;99.90
7461;DHT22;6757;52.258;12.840;2023-07-28T06:44:26;18.30;99.90
7461;DHT22;6757;52.258;12.840;2023-07-28T06:46:53;18.40;99.90
7461;DHT22;6757;52.258;12.840;2023-07-28T06:49:20;18.50;99.90
7461;DHT22;6757;52.258;12.840;2023-07-28T06:51:47;18.50;99.90
7461;DHT22;6757;52.258;12.840;2023-07-28T06:54:16;18.50;99.90
7461;DHT22;6757;52.258;12.840;2023-07-28T06:56:43;18.50;99.90
7461;DHT22;6757;52.258;12.840;2023-07-28T06:59:10;18.50;99.90
7461;DHT22;6757;52.258;12.840;2023-07-28T07:01:37;18.60;99.90
7461;DHT22;6757;52.258;12.840;2023-07-28T07:04:04;18.60;99.90
7461;DHT22;6757;52.258;12.840;2023-07-28T07:06:31;18.70;99.90
7461;DHT22;6757;52.258;12.840;2023-07-28T07:08:58;18.70;99.90
7461;DHT22;6757;52.258;12.840;2023-07-28T07:11:27;18.80;99.90
7461;DHT22;6757;52.258;12.840;2023-07-28T07:13:54;18.80;99.90
7461;DHT22;6757;52.258;12.840;2023-07-28T07:16:21;18.90;99.90
7461;DHT22;6757;52.258;12.840;2023-07-28T07:18:48;18.90;99.90
7461;DHT22;6757;52.258;12.840;2023-07-28T07:21:15;18.90;99.90
7461;DHT22;6757;52.258;12.840;2023-07-28T07:23:42;18.90;99.90
7461;DHT22;6757;52.258;12.840;2023-07-28T07:26:09;18.90;99.90
7461;DHT22;6757;52.258;12.840;2023-07-28T07:28:37;19.00;99.90
7461;DHT22;6757;52.258;12.840;2023-07-28T07:31:04;19.00;99.90
7461;DHT22;6757;52.258;12.840;2023-07-28T07:33:38;19.00;99.90
7461;DHT22;6757;52.258;12.840;2023-07-28T07:36:05;19.00;99.90
7461;DHT22;6757;52.258;12.840;2023-07-28T07:38:32;19.10;99.90
7461;DHT22;6757;52.258;12.840;2023-07-28T07:40:59;19.10;99.90
7461;DHT22;6757;52.258;12.840;2023-07-28T07:43:27;19.20;99.90
7461;DHT22;6757;52.258;12.840;2023-07-28T07:45:55;19.30;99.90
7461;DHT22;6757;52.258;12.840;2023-07-28T07:48:22;19.30;99.90
7461;DHT22;6757;52.258;12.840;2023-07-28T07:50:50;19.40;99.90
7461;DHT22;6757;52.258;12.840;2023-07-28T07:53:17;19.50;99.90
7461;DHT22;6757;52.258;12.840;2023-07-28T07:55:44;19.60;99.90
7461;DHT22;6757;52.258;12.840;2023-07-28T07:58:11;19.60;99.90
7461;DHT22;6757;52.258;12.840;2023-07-28T08:00:38;19.60;99.90
7461;DHT22;6757;52.258;12.840;2023-07-28T08:03:06;19.60;99.90
7461;DHT22;6757;52.258;12.840;2023-07-28T08:05:33;19.60;99.90
7461;DHT22;6757;52.258;12.840;2023-07-28T08:08:00;19.40;99.90
7461;DHT22;6757;52.258;12.840;2023-07-28T08:10:27;19.30;99.90
7461;DHT22;6757;52.258;12.840;2023-07-28T08:12:55;19.20;99.90
7461;DHT22;6757;52.258;12.840;2023-07-28T08:15:22;19.10;99.90
7461;DHT22;6757;52.258;12.840;2023-07-28T08:17:49;19.10;99.90
7461;DHT22;6757;52.258;12.840;2023-07-28T08:20:18;19.10;99.90
7461;DHT22;6757;52.258;12.840;2023-07-28T08:22:44;19.10;99.90
7461;DHT22;6757;52.258;12.840;2023-07-28T08:25:11;19.10;99.90
7461;DHT22;6757;52.258;12.840;2023-07-28T08:27:39;19.20;99.90
7461;DHT22;6757;52.258;12.840;2023-07-28T08:30:07;19.20;99.90
7461;DHT22;6757;52.258;12.840;2023-07-28T08:32:35;19.20;99.90
7461;DHT22;6757;52.258;12.840;2023-07-28T08:35:02;19.20;99.90
7461;DHT22;6757;52.258;12.840;2023-07-28T08:37:31;19.20;99.90
7461;DHT22;6757;52.258;12.840;2023-07-28T08:39:58;19.30;99.90
7461;DHT22;6757;52.258;12.840;2023-07-28T08:42:25;19.30;99.90
7461;DHT22;6757;52.258;12.840;2023-07-28T08:44:52;19.30;99.90
7461;DHT22;6757;52.258;12.840;2023-07-28T08:47:19;19.30;99.90
7461;DHT22;6757;52.258;12.840;2023-07-28T08:49:46;19.30;99.90
7461;DHT22;6757;52.258;12.840;2023-07-28T08:52:16;19.30;99.90
7461;DHT22;6757;52.258;12.840;2023-07-28T08:54:45;19.30;99.90
7461;DHT22;6757;52.258;12.840;2023-07-28T08:57:12;19.40;99.90
7461;DHT22;6757;52.258;12.840;2023-07-28T08:59:39;19.30;99.90
7461;DHT22;6757;52.258;12.840;2023-07-28T09:02:14;19.40;99.90
7461;DHT22;6757;52.258;12.840;2023-07-28T09:04:42;19.40;99.90
7461;DHT22;6757;52.258;12.840;2023-07-28T09:07:10;19.50;99.90
7461;DHT22;6757;52.258;12.840;2023-07-28T09:09:37;19.50;99.90
7461;DHT22;6757;52.258;12.840;2023-07-28T09:12:08;19.80;99.90
7461;DHT22;6757;52.258;12.840;2023-07-28T09:14:35;19.60;99.90
7461;DHT22;6757;52.258;12.840;2023-07-28T09:17:07;19.60;99.90
7461;DHT22;6757;52.258;12.840;2023-07-28T09:19:35;19.60;99.90
7461;DHT22;6757;52.258;12.840;2023-07-28T09:22:16;19.60;99.90
7461;DHT22;6757;52.258;12.840;2023-07-28T09:24:43;19.60;99.90
7461;DHT22;6757;52.258;12.840;2023-07-28T09:27:19;19.60;99.90
7461;DHT22;6757;52.258;12.840;2023-07-28T09:29:48;19.60;99.90
7461;DHT22;6757;52.258;12.840;2023-07-28T09:32:16;19.60;99.90
7461;DHT22;6757;52.258;12.840;2023-07-28T09:34:43;19.60;99.90
7461;DHT22;6757;52.258;12.840;2023-07-28T09:37:11;19.70;99.90
7461;DHT22;6757;52.258;12.840;2023-07-28T09:39:40;19.70;99.90
7461;DHT22;6757;52.258;12.840;2023-07-28T09:42:08;19.80;99.90
7461;DHT22;6757;52.258;12.840;2023-07-28T09:44:37;19.90;99.90
7461;DHT22;6757;52.258;12.840;2023-07-28T09:47:05;19.90;99.90
7461;DHT22;6757;52.258;12.840;2023-07-28T09:49:35;20.10;99.90
7461;DHT22;6757;52.258;12.840;2023-07-28T09:52:05;20.30;99.90
7461;DHT22;6757;52.258;12.840;2023-07-28T09:54:39;20.30;99.90
7461;DHT22;6757;52.258;12.840;2023-07-28T09:57:11;20.40;99.90
7461;DHT22;6757;52.258;12.840;2023-07-28T09:59:41;20.60;99.90
7461;DHT22;6757;52.258;12.840;2023-07-28T10:02:09;20.60;99.90
7461;DHT22;6757;52.258;12.840;2023-07-28T10:04:36;20.70;99.90
7461;DHT22;6757;52.258;12.840;2023-07-28T10:07:05;20.70;99.90
7461;DHT22;6757;52.258;12.840;2023-07-28T10:09:33;20.70;99.90
7461;DHT22;6757;52.258;12.840;2023-07-28T10:12:00;20.70;99.90
7461;DHT22;6757;52.258;12.840;2023-07-28T10:14:30;20.70;99.90
7461;DHT22;6757;52.258;12.840;2023-07-28T10:16:59;20.80;99.90
7461;DHT22;6757;52.258;12.840;2023-07-28T10:19:27;20.80;99.90
7461;DHT22;6757;52.258;12.840;2023-07-28T10:22:01;20.80;99.90
7461;DHT22;6757;52.258;12.840;2023-07-28T10:24:50;20.90;99.90
7461;DHT22;6757;52.258;12.840;2023-07-28T10:27:29;20.90;99.90
7461;DHT22;6757;52.258;12.840;2023-07-28T10:29:57;21.00;99.90
7461;DHT22;6757;52.258;12.840;2023-07-28T10:32:28;21.00;99.90
7461;DHT22;6757;52.258;12.840;2023-07-28T10:35:01;21.00;99.90
7461;DHT22;6757;52.258;12.840;2023-07-28T10:37:31;21.10;99.90
7461;DHT22;6757;52.258;12.840;2023-07-28T10:40:23;21.20;99.90
7461;DHT22;6757;52.258;12.840;2023-07-28T10:42:55;21.40;99.90
7461;DHT22;6757;52.258;12.840;2023-07-28T10:45:23;21.50;99.90
7461;DHT22;6757;52.258;12.840;2023-07-28T10:47:55;21.60;99.90
7461;DHT22;6757;52.258;12.840;2023-07-28T10:50:22;21.70;99.90
7461;DHT22;6757;52.258;12.840;2023-07-28T10:52:50;21.70;99.90
7461;DHT22;6757;52.258;12.840;2023-07-28T10:55:20;21.80;99.90
7461;DHT22;6757;52.258;12.840;2023-07-28T10:57:51;21.80;99.90
7461;DHT22;6757;52.258;12.840;2023-07-28T11:00:20;21.90;99.90
7461;DHT22;6757;52.258;12.840;2023-07-28T11:02:49;22.00;99.90
7461;DHT22;6757;52.258;12.840;2023-07-28T11:05:21;22.10;99.90
7461;DHT22;6757;52.258;12.840;2023-07-28T11:07:51;22.30;99.90
7461;DHT22;6757;52.258;12.840;2023-07-28T11:10:18;22.50;99.90
7461;DHT22;6757;52.258;12.840;2023-07-28T11:12:52;22.60;99.90
7461;DHT22;6757;52.258;12.840;2023-07-28T11:15:20;22.60;99.90
7461;DHT22;6757;52.258;12.840;2023-07-28T11:17:48;22.60;99.90
7461;DHT22;6757;52.258;12.840;2023-07-28T11:20:17;22.60;99.90
7461;DHT22;6757;52.258;12.840;2023-07-28T11:22:52;22.60;99.90
7461;DHT22;6757;52.258;12.840;2023-07-28T11:25:20;22.60;99.90
7461;DHT22;6757;52.258;12.840;2023-07-28T11:27:47;22.60;99.90
7461;DHT22;6757;52.258;12.840;2023-07-28T11:30:16;22.70;99.90
7461;DHT22;6757;52.258;12.840;2023-07-28T11:32:45;22.70;99.90
7461;DHT22;6757;52.258;12.840;2023-07-28T11:35:15;22.80;99.90
7461;DHT22;6757;52.258;12.840;2023-07-28T11:37:45;22.80;99.90
7461;DHT22;6757;52.258;12.840;2023-07-28T11:40:15;22.90;99.90
7461;DHT22;6757;52.258;12.840;2023-07-28T11:42:45;22.90;99.90
7461;DHT22;6757;52.258;12.840;2023-07-28T11:45:15;22.90;99.90
7461;DHT22;6757;52.258;12.840;2023-07-28T11:47:51;23.00;99.90
7461;DHT22;6757;52.258;12.840;2023-07-28T11:50:25;23.00;99.90
7461;DHT22;6757;52.258;12.840;2023-07-28T11:52:55;23.00;99.90
7461;DHT22;6757;52.258;12.840;2023-07-28T11:55:24;23.00;99.90
7461;DHT22;6757;52.258;12.840;2023-07-28T11:57:52;23.20;99.90
7461;DHT22;6757;52.258;12.840;2023-07-28T12:00:22;23.00;99.90
7461;DHT22;6757;52.258;12.840;2023-07-28T12:03:01;22.90;99.90
7461;DHT22;6757;52.258;12.840;2023-07-28T12:05:30;22.90;99.90
7461;DHT22;6757;52.258;12.840;2023-07-28T12:08:00;22.80;99.90
7461;DHT22;6757;52.258;12.840;2023-07-28T12:10:29;22.70;99.90
7461;DHT22;6757;52.258;12.840;2023-07-28T12:12:57;22.70;99.90
7461;DHT22;6757;52.258;12.840;2023-07-28T12:15:25;22.80;99.90
7461;DHT22;6757;52.258;12.840;2023-07-28T12:18:10;22.90;99.90
7461;DHT22;6757;52.258;12.840;2023-07-28T12:20:40;23.10;99.90
7461;DHT22;6757;52.258;12.840;2023-07-28T12:23:14;23.30;99.90
7461;DHT22;6757;52.258;12.840;2023-07-28T12:25:42;23.50;99.90
7461;DHT22;6757;52.258;12.840;2023-07-28T12:28:09;23.70;99.90
7461;DHT22;6757;52.258;12.840;2023-07-28T12:30:37;24.10;99.90
7461;DHT22;6757;52.258;12.840;2023-07-28T12:33:04;24.40;99.90
7461;DHT22;6757;52.258;12.840;2023-07-28T12:35:32;24.70;99.90
7461;DHT22;6757;52.258;12.840;2023-07-28T12:38:01;25.10;99.90
7461;DHT22;6757;52.258;12.840;2023-07-28T12:40:32;25.30;99.90
7461;DHT22;6757;52.258;12.840;2023-07-28T12:43:01;25.30;99.90
7461;DHT22;6757;52.258;12.840;2023-07-28T12:45:29;25.20;99.90
7461;DHT22;6757;52.258;12.840;2023-07-28T12:47:56;24.90;99.90
7461;DHT22;6757;52.258;12.840;2023-07-28T12:50:23;24.20;99.90
7461;DHT22;6757;52.258;12.840;2023-07-28T12:52:50;23.60;99.90
7461;DHT22;6757;52.258;12.840;2023-07-28T12:55:18;23.00;99.90
7461;DHT22;6757;52.258;12.840;2023-07-28T12:57:46;22.70;99.90
7461;DHT22;6757;52.258;12.840;2023-07-28T13:00:14;22.80;99.90
7461;DHT22;6757;52.258;12.840;2023-07-28T13:02:42;23.10;99.90
7461;DHT22;6757;52.258;12.840;2023-07-28T13:05:11;23.40;99.90
7461;DHT22;6757;52.258;12.840;2023-07-28T13:07:39;24.00;99.90
7461;DHT22;6757;52.258;12.840;2023-07-28T13:10:09;24.60;99.90
7461;DHT22;6757;52.258;12.840;2023-07-28T13:12:37;25.20;99.90
7461;DHT22;6757;52.258;12.840;2023-07-28T13:15:06;25.80;99.90
7461;DHT22;6757;52.258;12.840;2023-07-28T13:17:34;26.10;99.90
7461;DHT22;6757;52.258;12.840;2023-07-28T13:20:01;26.20;99.90
7461;DHT22;6757;52.258;12.840;2023-07-28T13:22:28;26.20;99.90
7461;DHT22;6757;52.258;12.840;2023-07-28T13:24:55;26.40;99.90
7461;DHT22;6757;52.258;12.840;2023-07-28T13:27:23;26.50;99.90
7461;DHT22;6757;52.258;12.840;2023-07-28T13:29:50;26.40;99.90
7461;DHT22;6757;52.258;12.840;2023-07-28T13:32:23;26.30;99.90
7461;DHT22;6757;52.258;12.840;2023-07-28T13:34:51;26.00;99.90
7461;DHT22;6757;52.258;12.840;2023-07-28T13:37:18;25.90;99.90
7461;DHT22;6757;52.258;12.840;2023-07-28T13:39:45;25.90;99.90
7461;DHT22;6757;52.258;12.840;2023-07-28T13:42:12;25.70;99.90
7461;DHT22;6757;52.258;12.840;2023-07-28T13:44:41;25.80;99.90
7461;DHT22;6757;52.258;12.840;2023-07-28T13:47:08;25.90;99.90
7461;DHT22;6757;52.258;12.840;2023-07-28T13:49:37;26.10;99.90
7461;DHT22;6757;52.258;12.840;2023-07-28T13:52:05;26.20;99.90
7461;DHT22;6757;52.258;12.840;2023-07-28T13:54:32;26.40;99.90
7461;DHT22;6757;52.258;12.840;2023-07-28T13:56:59;26.40;99.90
7461;DHT22;6757;52.258;12.840;2023-07-28T13:59:27;26.40;99.90
7461;DHT22;6757;52.258;12.840;2023-07-28T14:01:54;26.10;99.90
7461;DHT22;6757;52.258;12.840;2023-07-28T14:04:23;25.90;99.90
7461;DHT22;6757;52.258;12.840;2023-07-28T14:06:51;26.00;99.90
7461;DHT22;6757;52.258;12.840;2023-07-28T14:09:18;25.80;99.90
7461;DHT22;6757;52.258;12.840;2023-07-28T14:11:45;25.80;99.90
7461;DHT22;6757;52.258;12.840;2023-07-28T14:14:12;25.70;99.90
7461;DHT22;6757;52.258;12.840;2023-07-28T14:16:39;25.60;99.90
7461;DHT22;6757;52.258;12.840;2023-07-28T14:19:08;25.90;99.90
7461;DHT22;6757;52.258;12.840;2023-07-28T14:21:35;26.40;99.90
7461;DHT22;6757;52.258;12.840;2023-07-28T14:24:05;26.70;99.90
7461;DHT22;6757;52.258;12.840;2023-07-28T14:26:32;26.90;99.90
7461;DHT22;6757;52.258;12.840;2023-07-28T14:28:59;26.80;99.90
7461;DHT22;6757;52.258;12.840;2023-07-28T14:31:26;26.50;99.90
7461;DHT22;6757;52.258;12.840;2023-07-28T14:33:53;26.30;99.90
7461;DHT22;6757;52.258;12.840;2023-07-28T14:36:20;26.00;99.90
7461;DHT22;6757;52.258;12.840;2023-07-28T14:38:47;26.00;99.90
7461;DHT22;6757;52.258;12.840;2023-07-28T14:41:15;25.50;99.90
7461;DHT22;6757;52.258;12.840;2023-07-28T14:43:42;25.30;99.90
7461;DHT22;6757;52.258;12.840;2023-07-28T14:46:09;25.00;99.90
7461;DHT22;6757;52.258;12.840;2023-07-28T14:48:36;24.80;99.90
7461;DHT22;6757;52.258;12.840;2023-07-28T14:51:03;24.60;99.90
7461;DHT22;6757;52.258;12.840;2023-07-28T14:53:31;24.50;99.90
7461;DHT22;6757;52.258;12.840;2023-07-28T14:56:00;24.40;99.90
7461;DHT22;6757;52.258;12.840;2023-07-28T14:58:29;24.40;99.90
7461;DHT22;6757;52.258;12.840;2023-07-28T15:00:57;24.40;99.90
7461;DHT22;6757;52.258;12.840;2023-07-28T15:03:27;24.30;99.90
7461;DHT22;6757;52.258;12.840;2023-07-28T15:05:56;24.20;99.90
7461;DHT22;6757;52.258;12.840;2023-07-28T15:08:23;23.90;99.90
7461;DHT22;6757;52.258;12.840;2023-07-28T15:10:50;23.60;99.90
7461;DHT22;6757;52.258;12.840;2023-07-28T15:13:17;23.10;99.90
7461;DHT22;6757;52.258;12.840;2023-07-28T15:15:45;22.60;99.90
7461;DHT22;6757;52.258;12.840;2023-07-28T15:18:12;22.10;99.90
7461;DHT22;6757;52.258;12.840;2023-07-28T15:20:41;21.70;99.90
7461;DHT22;6757;52.258;12.840;2023-07-28T15:23:08;21.40;99.90
7461;DHT22;6757;52.258;12.840;2023-07-28T15:25:35;21.20;99.90
7461;DHT22;6757;52.258;12.840;2023-07-28T15:28:03;21.00;99.90
7461;DHT22;6757;52.258;12.840;2023-07-28T15:30:30;20.90;99.90
7461;DHT22;6757;52.258;12.840;2023-07-28T15:32:58;20.80;99.90
7461;DHT22;6757;52.258;12.840;2023-07-28T15:35:25;20.70;99.90
7461;DHT22;6757;52.258;12.840;2023-07-28T15:37:52;20.70;99.90
7461;DHT22;6757;52.258;12.840;2023-07-28T15:40:19;20.70;99.90
7461;DHT22;6757;52.258;12.840;2023-07-28T15:42:46;20.70;99.90
7461;DHT22;6757;52.258;12.840;2023-07-28T15:45:13;20.70;99.90
7461;DHT22;6757;52.258;12.840;2023-07-28T15:47:40;20.70;99.90
7461;DHT22;6757;52.258;12.840;2023-07-28T15:50:09;20.80;99.90